sensor_id;sensor_type;location;lat;lon;timestamp;P1;durP1;ratioP1;P2;durP2;ratioP2
46507;SDS011;32223;53.654;10.014;2022-08-20T00:00:39;11.60;;;10.45;;
46507;SDS011;32223;53.654;10.014;2022-08-20T00:03:13;14.95;;;11.63;;
46507;SDS011;32223;53.654;10.014;2022-08-20T00:05:48;12.18;;;9.88;;
46507;SDS011;32223;53.654;10.014;2022-08-20T00:08:19;11.83;;;10.27;;
46507;SDS011;32223;53.654;10.014;2022-08-20T00:10:46;11.25;;;9.30;;
46507;SDS011;32223;53.654;10.014;2022-08-20T00:13:14;14.55;;;10.90;;
46507;SDS011;32223;53.654;10.014;2022-08-20T00:15:43;13.10;;;11.60;;
46507;SDS011;32223;53.654;10.014;2022-08-20T00:18:09;14.15;;;11.57;;
46507;SDS011;32223;53.654;10.014;2022-08-20T00:20:38;15.77;;;13.40;;
46507;SDS011;32223;53.654;10.014;2022-08-20T00:23:06;14.68;;;13.05;;
46507;SDS011;32223;53.654;10.014;2022-08-20T00:25:33;11.43;;;9.80;;
46507;SDS011;32223;53.654;10.014;2022-08-20T00:27:58;12.35;;;10.35;;
46507;SDS011;32223;53.654;10.014;2022-08-20T00:30:25;12.32;;;9.43;;
46507;SDS011;32223;53.654;10.014;2022-08-20T00:32:53;13.02;;;11.40;;
46507;SDS011;32223;53.654;10.014;2022-08-20T00:35:22;9.95;;;8.52;;
46507;SDS011;32223;53.654;10.014;2022-08-20T00:37:49;13.98;;;10.40;;
46507;SDS011;32223;53.654;10.014;2022-08-20T00:40:16;11.70;;;9.80;;
46507;SDS011;32223;53.654;10.014;2022-08-20T00:42:46;14.05;;;9.52;;
46507;SDS011;32223;53.654;10.014;2022-08-20T00:45:16;10.43;;;8.52;;
46507;SDS011;32223;53.654;10.014;2022-08-20T00:47:43;12.40;;;10.15;;
46507;SDS011;32223;53.654;10.014;2022-08-20T00:50:10;11.82;;;9.40;;
46507;SDS011;32223;53.654;10.014;2022-08-20T00:52:38;12.23;;;10.52;;
46507;SDS011;32223;53.654;10.014;2022-08-20T00:55:06;11.20;;;8.95;;
46507;SDS011;32223;53.654;10.014;2022-08-20T00:57:35;10.82;;;9.68;;
46507;SDS011;32223;53.654;10.014;2022-08-20T01:00:10;13.98;;;10.02;;
46507;SDS011;32223;53.654;10.014;2022-08-20T01:02:39;10.88;;;8.40;;
46507;SDS011;32223;53.654;10.014;2022-08-20T01:05:06;11.80;;;10.48;;
46507;SDS011;32223;53.654;10.014;2022-08-20T01:07:33;10.07;;;7.72;;
46507;SDS011;32223;53.654;10.014;2022-08-20T01:10:02;13.93;;;10.10;;
46507;SDS011;32223;53.654;10.014;2022-08-20T01:12:32;11.48;;;9.35;;
46507;SDS011;32223;53.654;10.014;2022-08-20T01:14:59;8.82;;;7.75;;
46507;SDS011;32223;53.654;10.014;2022-08-20T01:17:27;11.07;;;9.48;;
46507;SDS011;32223;53.654;10.014;2022-08-20T01:22:37;12.70;;;9.77;;
46507;SDS011;32223;53.654;10.014;2022-08-20T01:25:37;11.63;;;9.80;;
46507;SDS011;32223;53.654;10.014;2022-08-20T01:28:26;9.88;;;8.57;;
46507;SDS011;32223;53.654;10.014;2022-08-20T01:31:27;10.48;;;8.65;;
46507;SDS011;32223;53.654;10.014;2022-08-20T01:33:55;11.23;;;9.50;;
46507;SDS011;32223;53.654;10.014;2022-08-20T01:36:24;10.02;;;7.82;;
46507;SDS011;32223;53.654;10.014;2022-08-20T01:38:54;12.32;;;9.88;;
46507;SDS011;32223;53.654;10.014;2022-08-20T01:43:50;10.57;;;8.52;;
46507;SDS011;32223;53.654;10.014;2022-08-20T01:46:33;14.47;;;8.70;;
46507;SDS011;32223;53.654;10.014;2022-08-20T01:49:06;10.55;;;8.05;;
46507;SDS011;32223;53.654;10.014;2022-08-20T01:51:36;11.63;;;9.07;;
46507;SDS011;32223;53.654;10.014;2022-08-20T01:54:01;9.00;;;6.78;;
46507;SDS011;32223;53.654;10.014;2022-08-20T01:56:29;9.93;;;8.18;;
46507;SDS011;32223;53.654;10.014;2022-08-20T01:58:57;10.65;;;8.02;;
46507;SDS011;32223;53.654;10.014;2022-08-20T02:01:36;10.45;;;8.18;;
46507;SDS011;32223;53.654;10.014;2022-08-20T02:04:05;8.98;;;6.88;;
46507;SDS011;32223;53.654;10.014;2022-08-20T02:06:36;8.20;;;6.90;;
46507;SDS011;32223;53.654;10.014;2022-08-20T02:09:05;9.23;;;7.15;;
46507;SDS011;32223;53.654;10.014;2022-08-20T02:11:32;8.18;;;6.75;;
46507;SDS011;32223;53.654;10.014;2022-08-20T02:13:59;8.45;;;6.90;;
46507;SDS011;32223;53.654;10.014;2022-08-20T02:16:29;8.70;;;6.90;;
46507;SDS011;32223;53.654;10.014;2022-08-20T02:19:02;8.35;;;5.95;;
46507;SDS011;32223;53.654;10.014;2022-08-20T02:21:36;7.75;;;6.72;;
46507;SDS011;32223;53.654;10.014;2022-08-20T02:24:10;7.50;;;6.07;;
46507;SDS011;32223;53.654;10.014;2022-08-20T02:26:36;8.30;;;6.22;;
46507;SDS011;32223;53.654;10.014;2022-08-20T02:29:04;9.30;;;6.60;;
46507;SDS011;32223;53.654;10.014;2022-08-20T02:31:31;8.05;;;5.85;;
46507;SDS011;32223;53.654;10.014;2022-08-20T02:33:57;11.18;;;5.88;;
46507;SDS011;32223;53.654;10.014;2022-08-20T02:36:23;8.20;;;5.80;;
46507;SDS011;32223;53.654;10.014;2022-08-20T02:38:51;6.57;;;5.68;;
46507;SDS011;32223;53.654;10.014;2022-08-20T02:41:17;7.10;;;4.82;;
46507;SDS011;32223;53.654;10.014;2022-08-20T02:43:45;6.47;;;5.07;;
46507;SDS011;32223;53.654;10.014;2022-08-20T02:46:12;8.13;;;5.22;;
46507;SDS011;32223;53.654;10.014;2022-08-20T02:48:39;5.50;;;4.47;;
46507;SDS011;32223;53.654;10.014;2022-08-20T02:51:06;6.63;;;5.35;;
46507;SDS011;32223;53.654;10.014;2022-08-20T02:53:34;6.90;;;4.60;;
46507;SDS011;32223;53.654;10.014;2022-08-20T02:56:02;7.13;;;4.85;;
46507;SDS011;32223;53.654;10.014;2022-08-20T02:58:32;7.35;;;4.55;;
46507;SDS011;32223;53.654;10.014;2022-08-20T03:00:59;7.25;;;4.40;;
46507;SDS011;32223;53.654;10.014;2022-08-20T03:03:26;9.48;;;5.05;;
46507;SDS011;32223;53.654;10.014;2022-08-20T03:05:53;6.93;;;4.88;;
46507;SDS011;32223;53.654;10.014;2022-08-20T03:08:19;4.07;;;3.47;;
46507;SDS011;32223;53.654;10.014;2022-08-20T03:10:46;5.20;;;3.90;;
46507;SDS011;32223;53.654;10.014;2022-08-20T03:13:13;5.13;;;4.28;;
46507;SDS011;32223;53.654;10.014;2022-08-20T03:15:41;4.95;;;4.40;;
46507;SDS011;32223;53.654;10.014;2022-08-20T03:18:08;6.40;;;4.32;;
46507;SDS011;32223;53.654;10.014;2022-08-20T03:20:35;6.90;;;4.70;;
46507;SDS011;32223;53.654;10.014;2022-08-20T03:23:01;6.00;;;4.75;;
46507;SDS011;32223;53.654;10.014;2022-08-20T03:25:27;7.43;;;5.40;;
46507;SDS011;32223;53.654;10.014;2022-08-20T03:27:53;5.47;;;4.75;;
46507;SDS011;32223;53.654;10.014;2022-08-20T03:30:21;6.38;;;4.63;;
46507;SDS011;32223;53.654;10.014;2022-08-20T03:32:48;5.93;;;4.93;;
46507;SDS011;32223;53.654;10.014;2022-08-20T03:35:15;6.80;;;5.15;;
46507;SDS011;32223;53.654;10.014;2022-08-20T03:37:42;8.18;;;4.93;;
46507;SDS011;32223;53.654;10.014;2022-08-20T03:40:09;11.00;;;5.20;;
46507;SDS011;32223;53.654;10.014;2022-08-20T03:42:39;7.35;;;5.40;;
46507;SDS011;32223;53.654;10.014;2022-08-20T03:45:06;5.72;;;4.57;;
46507;SDS011;32223;53.654;10.014;2022-08-20T03:47:33;4.82;;;3.83;;
46507;SDS011;32223;53.654;10.014;2022-08-20T03:50:00;5.82;;;4.80;;
46507;SDS011;32223;53.654;10.014;2022-08-20T03:52:28;6.90;;;5.32;;
46507;SDS011;32223;53.654;10.014;2022-08-20T03:54:54;6.57;;;5.68;;
46507;SDS011;32223;53.654;10.014;2022-08-20T03:57:20;9.52;;;6.45;;
46507;SDS011;32223;53.654;10.014;2022-08-20T03:59:46;6.78;;;5.32;;
46507;SDS011;32223;53.654;10.014;2022-08-20T04:02:12;8.38;;;6.55;;
46507;SDS011;32223;53.654;10.014;2022-08-20T04:04:38;6.63;;;5.15;;
46507;SDS011;32223;53.654;10.014;2022-08-20T04:07:15;5.70;;;5.07;;
46507;SDS011;32223;53.654;10.014;2022-08-20T04:09:50;8.23;;;6.28;;
46507;SDS011;32223;53.654;10.014;2022-08-20T04:12:16;9.48;;;6.30;;
46507;SDS011;32223;53.654;10.014;2022-08-20T04:14:42;11.93;;;7.45;;
46507;SDS011;32223;53.654;10.014;2022-08-20T04:17:09;9.45;;;5.75;;
46507;SDS011;32223;53.654;10.014;2022-08-20T04:19:36;10.10;;;5.85;;
46507;SDS011;32223;53.654;10.014;2022-08-20T04:22:03;12.63;;;8.30;;
46507;SDS011;32223;53.654;10.014;2022-08-20T04:24:29;8.20;;;5.72;;
46507;SDS011;32223;53.654;10.014;2022-08-20T04:26:55;9.43;;;6.63;;
46507;SDS011;32223;53.654;10.014;2022-08-20T04:29:22;11.50;;;7.05;;
46507;SDS011;32223;53.654;10.014;2022-08-20T04:31:48;9.52;;;6.18;;
46507;SDS011;32223;53.654;10.014;2022-08-20T04:34:14;10.27;;;8.10;;
46507;SDS011;32223;53.654;10.014;2022-08-20T04:36:42;11.38;;;7.68;;
46507;SDS011;32223;53.654;10.014;2022-08-20T04:39:11;9.82;;;7.05;;
46507;SDS011;32223;53.654;10.014;2022-08-20T04:41:36;8.57;;;5.55;;
46507;SDS011;32223;53.654;10.014;2022-08-20T04:44:02;10.48;;;8.18;;
46507;SDS011;32223;53.654;10.014;2022-08-20T04:46:28;10.43;;;7.35;;
46507;SDS011;32223;53.654;10.014;2022-08-20T04:48:55;16.13;;;8.52;;
46507;SDS011;32223;53.654;10.014;2022-08-20T04:51:21;7.97;;;6.30;;
46507;SDS011;32223;53.654;10.014;2022-08-20T04:53:47;11.27;;;7.75;;
46507;SDS011;32223;53.654;10.014;2022-08-20T04:56:13;9.60;;;7.45;;
46507;SDS011;32223;53.654;10.014;2022-08-20T04:58:38;11.98;;;7.00;;
46507;SDS011;32223;53.654;10.014;2022-08-20T05:01:06;8.70;;;6.10;;
46507;SDS011;32223;53.654;10.014;2022-08-20T05:03:34;6.93;;;5.53;;
46507;SDS011;32223;53.654;10.014;2022-08-20T05:06:05;11.48;;;8.38;;
46507;SDS011;32223;53.654;10.014;2022-08-20T05:08:32;13.55;;;8.68;;
46507;SDS011;32223;53.654;10.014;2022-08-20T05:10:59;12.80;;;7.65;;
46507;SDS011;32223;53.654;10.014;2022-08-20T05:13:25;10.23;;;8.00;;
46507;SDS011;32223;53.654;10.014;2022-08-20T05:15:52;12.02;;;8.43;;
46507;SDS011;32223;53.654;10.014;2022-08-20T05:18:19;14.65;;;9.77;;
46507;SDS011;32223;53.654;10.014;2022-08-20T05:20:46;10.85;;;7.05;;
46507;SDS011;32223;53.654;10.014;2022-08-20T05:23:13;12.52;;;8.63;;
46507;SDS011;32223;53.654;10.014;2022-08-20T05:25:41;13.95;;;9.20;;
46507;SDS011;32223;53.654;10.014;2022-08-20T05:28:09;10.10;;;6.88;;
46507;SDS011;32223;53.654;10.014;2022-08-20T05:30:37;12.48;;;9.15;;
46507;SDS011;32223;53.654;10.014;2022-08-20T05:33:05;10.77;;;8.45;;
46507;SDS011;32223;53.654;10.014;2022-08-20T05:35:33;13.85;;;9.45;;
46507;SDS011;32223;53.654;10.014;2022-08-20T05:38:03;13.40;;;7.28;;
46507;SDS011;32223;53.654;10.014;2022-08-20T05:40:29;8.50;;;7.35;;
46507;SDS011;32223;53.654;10.014;2022-08-20T05:42:55;9.32;;;6.93;;
46507;SDS011;32223;53.654;10.014;2022-08-20T05:45:21;13.68;;;8.85;;
46507;SDS011;32223;53.654;10.014;2022-08-20T05:47:46;12.55;;;9.05;;
46507;SDS011;32223;53.654;10.014;2022-08-20T05:50:13;13.85;;;10.18;;
46507;SDS011;32223;53.654;10.014;2022-08-20T05:52:39;10.07;;;6.50;;
46507;SDS011;32223;53.654;10.014;2022-08-20T05:55:06;13.40;;;9.52;;
46507;SDS011;32223;53.654;10.014;2022-08-20T05:57:33;11.80;;;9.20;;
46507;SDS011;32223;53.654;10.014;2022-08-20T06:00:00;11.18;;;9.45;;
46507;SDS011;32223;53.654;10.014;2022-08-20T06:02:29;6.88;;;5.82;;
46507;SDS011;32223;53.654;10.014;2022-08-20T06:05:13;13.95;;;10.80;;
46507;SDS011;32223;53.654;10.014;2022-08-20T06:07:39;10.23;;;7.57;;
46507;SDS011;32223;53.654;10.014;2022-08-20T06:10:05;9.15;;;6.35;;
46507;SDS011;32223;53.654;10.014;2022-08-20T06:12:33;13.35;;;9.00;;
46507;SDS011;32223;53.654;10.014;2022-08-20T06:14:58;14.00;;;9.77;;
46507;SDS011;32223;53.654;10.014;2022-08-20T06:17:24;14.05;;;9.82;;
46507;SDS011;32223;53.654;10.014;2022-08-20T06:19:50;11.77;;;8.95;;
46507;SDS011;32223;53.654;10.014;2022-08-20T06:22:16;11.18;;;9.10;;
46507;SDS011;32223;53.654;10.014;2022-08-20T06:24:41;13.85;;;9.98;;
46507;SDS011;32223;53.654;10.014;2022-08-20T06:27:07;13.10;;;10.05;;
46507;SDS011;32223;53.654;10.014;2022-08-20T06:29:38;12.18;;;8.55;;
46507;SDS011;32223;53.654;10.014;2022-08-20T06:32:04;13.07;;;9.18;;
46507;SDS011;32223;53.654;10.014;2022-08-20T06:34:30;10.90;;;8.38;;
46507;SDS011;32223;53.654;10.014;2022-08-20T06:36:56;14.00;;;10.55;;
46507;SDS011;32223;53.654;10.014;2022-08-20T06:39:23;13.05;;;9.43;;
46507;SDS011;32223;53.654;10.014;2022-08-20T06:41:50;10.35;;;9.05;;
46507;SDS011;32223;53.654;10.014;2022-08-20T06:44:17;11.00;;;8.20;;
46507;SDS011;32223;53.654;10.014;2022-08-20T06:46:43;11.35;;;9.63;;
46507;SDS011;32223;53.654;10.014;2022-08-20T06:49:10;12.93;;;9.13;;
46507;SDS011;32223;53.654;10.014;2022-08-20T06:51:36;10.07;;;7.95;;
46507;SDS011;32223;53.654;10.014;2022-08-20T06:54:02;9.98;;;6.65;;
46507;SDS011;32223;53.654;10.014;2022-08-20T06:56:29;14.32;;;10.45;;
46507;SDS011;32223;53.654;10.014;2022-08-20T06:58:55;10.98;;;7.45;;
46507;SDS011;32223;53.654;10.014;2022-08-20T07:01:20;11.13;;;8.57;;
46507;SDS011;32223;53.654;10.014;2022-08-20T07:03:47;7.20;;;4.38;;
46507;SDS011;32223;53.654;10.014;2022-08-20T07:06:17;11.75;;;9.05;;
46507;SDS011;32223;53.654;10.014;2022-08-20T07:08:43;8.68;;;7.68;;
46507;SDS011;32223;53.654;10.014;2022-08-20T07:11:09;7.35;;;5.90;;
46507;SDS011;32223;53.654;10.014;2022-08-20T07:13:35;12.65;;;7.53;;
46507;SDS011;32223;53.654;10.014;2022-08-20T07:16:05;10.05;;;6.57;;
46507;SDS011;32223;53.654;10.014;2022-08-20T07:18:30;11.20;;;6.63;;
46507;SDS011;32223;53.654;10.014;2022-08-20T07:20:56;10.77;;;7.22;;
46507;SDS011;32223;53.654;10.014;2022-08-20T07:23:23;7.13;;;5.57;;
46507;SDS011;32223;53.654;10.014;2022-08-20T07:25:50;7.57;;;4.60;;
46507;SDS011;32223;53.654;10.014;2022-08-20T07:28:18;6.97;;;5.47;;
46507;SDS011;32223;53.654;10.014;2022-08-20T07:30:46;7.40;;;5.00;;
46507;SDS011;32223;53.654;10.014;2022-08-20T07:35:58;7.60;;;4.65;;
46507;SDS011;32223;53.654;10.014;2022-08-20T07:38:25;7.95;;;4.60;;
46507;SDS011;32223;53.654;10.014;2022-08-20T07:40:55;7.97;;;4.13;;
46507;SDS011;32223;53.654;10.014;2022-08-20T07:43:22;8.65;;;3.70;;
46507;SDS011;32223;53.654;10.014;2022-08-20T07:45:52;5.10;;;3.10;;
46507;SDS011;32223;53.654;10.014;2022-08-20T07:48:21;5.20;;;2.80;;
46507;SDS011;32223;53.654;10.014;2022-08-20T07:50:50;7.53;;;3.45;;
46507;SDS011;32223;53.654;10.014;2022-08-20T07:53:18;6.18;;;3.42;;
46507;SDS011;32223;53.654;10.014;2022-08-20T07:55:43;5.80;;;2.90;;
46507;SDS011;32223;53.654;10.014;2022-08-20T07:58:10;3.58;;;2.35;;
46507;SDS011;32223;53.654;10.014;2022-08-20T08:00:38;6.18;;;3.80;;
46507;SDS011;32223;53.654;10.014;2022-08-20T08:03:04;5.78;;;2.92;;
46507;SDS011;32223;53.654;10.014;2022-08-20T08:05:35;5.88;;;2.58;;
46507;SDS011;32223;53.654;10.014;2022-08-20T08:08:03;6.78;;;3.30;;
46507;SDS011;32223;53.654;10.014;2022-08-20T08:10:33;4.00;;;1.95;;
46507;SDS011;32223;53.654;10.014;2022-08-20T08:13:01;6.15;;;2.30;;
46507;SDS011;32223;53.654;10.014;2022-08-20T08:15:30;3.30;;;1.70;;
46507;SDS011;32223;53.654;10.014;2022-08-20T08:17:59;4.28;;;2.47;;
46507;SDS011;32223;53.654;10.014;2022-08-20T08:20:27;4.45;;;2.42;;
46507;SDS011;32223;53.654;10.014;2022-08-20T08:22:53;5.65;;;2.38;;
46507;SDS011;32223;53.654;10.014;2022-08-20T08:25:19;2.50;;;1.70;;
46507;SDS011;32223;53.654;10.014;2022-08-20T08:27:45;5.78;;;2.60;;
46507;SDS011;32223;53.654;10.014;2022-08-20T08:30:14;3.20;;;2.00;;
46507;SDS011;32223;53.654;10.014;2022-08-20T08:32:40;4.95;;;1.90;;
46507;SDS011;32223;53.654;10.014;2022-08-20T08:35:26;6.00;;;2.47;;
46507;SDS011;32223;53.654;10.014;2022-08-20T08:37:53;7.95;;;5.03;;
46507;SDS011;32223;53.654;10.014;2022-08-20T08:40:22;4.90;;;2.40;;
46507;SDS011;32223;53.654;10.014;2022-08-20T08:42:48;6.25;;;2.10;;
46507;SDS011;32223;53.654;10.014;2022-08-20T08:45:19;5.25;;;2.28;;
46507;SDS011;32223;53.654;10.014;2022-08-20T08:47:45;4.97;;;2.20;;
46507;SDS011;32223;53.654;10.014;2022-08-20T08:50:22;5.53;;;2.03;;
46507;SDS011;32223;53.654;10.014;2022-08-20T08:52:51;6.78;;;2.45;;
46507;SDS011;32223;53.654;10.014;2022-08-20T08:55:21;2.63;;;1.48;;
46507;SDS011;32223;53.654;10.014;2022-08-20T08:57:47;2.63;;;1.60;;
46507;SDS011;32223;53.654;10.014;2022-08-20T09:00:15;4.45;;;1.90;;
46507;SDS011;32223;53.654;10.014;2022-08-20T09:02:59;4.13;;;1.42;;
46507;SDS011;32223;53.654;10.014;2022-08-20T09:05:28;5.30;;;1.50;;
46507;SDS011;32223;53.654;10.014;2022-08-20T09:08:00;3.50;;;1.60;;
46507;SDS011;32223;53.654;10.014;2022-08-20T09:10:27;3.90;;;1.25;;
46507;SDS011;32223;53.654;10.014;2022-08-20T09:12:53;4.97;;;1.88;;
46507;SDS011;32223;53.654;10.014;2022-08-20T09:15:19;4.90;;;1.77;;
46507;SDS011;32223;53.654;10.014;2022-08-20T09:17:45;5.32;;;2.10;;
46507;SDS011;32223;53.654;10.014;2022-08-20T09:20:11;7.13;;;2.38;;
46507;SDS011;32223;53.654;10.014;2022-08-20T09:22:36;4.90;;;2.15;;
46507;SDS011;32223;53.654;10.014;2022-08-20T09:25:02;7.97;;;2.00;;
46507;SDS011;32223;53.654;10.014;2022-08-20T09:27:29;3.60;;;1.23;;
46507;SDS011;32223;53.654;10.014;2022-08-20T09:29:55;3.70;;;1.40;;
46507;SDS011;32223;53.654;10.014;2022-08-20T09:32:22;4.63;;;1.67;;
46507;SDS011;32223;53.654;10.014;2022-08-20T09:34:49;5.57;;;1.73;;
46507;SDS011;32223;53.654;10.014;2022-08-20T09:37:19;3.60;;;2.00;;
46507;SDS011;32223;53.654;10.014;2022-08-20T09:39:46;2.80;;;1.23;;
46507;SDS011;32223;53.654;10.014;2022-08-20T09:42:13;6.43;;;2.33;;
46507;SDS011;32223;53.654;10.014;2022-08-20T09:44:50;5.70;;;1.60;;
46507;SDS011;32223;53.654;10.014;2022-08-20T09:47:16;6.35;;;1.63;;
46507;SDS011;32223;53.654;10.014;2022-08-20T09:49:42;5.13;;;2.20;;
46507;SDS011;32223;53.654;10.014;2022-08-20T09:52:09;7.78;;;2.05;;
46507;SDS011;32223;53.654;10.014;2022-08-20T09:54:43;6.35;;;1.67;;
46507;SDS011;32223;53.654;10.014;2022-08-20T09:57:09;5.78;;;1.58;;
46507;SDS011;32223;53.654;10.014;2022-08-20T09:59:35;7.05;;;1.90;;
46507;SDS011;32223;53.654;10.014;2022-08-20T10:02:01;5.15;;;1.63;;
46507;SDS011;32223;53.654;10.014;2022-08-20T10:04:27;3.85;;;1.60;;
46507;SDS011;32223;53.654;10.014;2022-08-20T10:06:53;7.13;;;2.28;;
46507;SDS011;32223;53.654;10.014;2022-08-20T10:09:18;3.33;;;1.60;;
46507;SDS011;32223;53.654;10.014;2022-08-20T10:11:44;5.07;;;1.90;;
46507;SDS011;32223;53.654;10.014;2022-08-20T10:14:10;5.43;;;2.33;;
46507;SDS011;32223;53.654;10.014;2022-08-20T10:16:35;8.23;;;2.83;;
46507;SDS011;32223;53.654;10.014;2022-08-20T10:19:02;4.57;;;1.88;;
46507;SDS011;32223;53.654;10.014;2022-08-20T10:21:29;6.43;;;2.30;;
46507;SDS011;32223;53.654;10.014;2022-08-20T10:23:56;6.43;;;1.90;;
46507;SDS011;32223;53.654;10.014;2022-08-20T10:26:22;6.28;;;2.00;;
46507;SDS011;32223;53.654;10.014;2022-08-20T10:28:47;7.30;;;1.77;;
46507;SDS011;32223;53.654;10.014;2022-08-20T10:31:13;5.68;;;2.30;;
46507;SDS011;32223;53.654;10.014;2022-08-20T10:33:39;4.55;;;1.60;;
46507;SDS011;32223;53.654;10.014;2022-08-20T10:36:06;4.72;;;1.80;;
46507;SDS011;32223;53.654;10.014;2022-08-20T10:38:33;4.60;;;2.03;;
46507;SDS011;32223;53.654;10.014;2022-08-20T10:40:59;5.15;;;1.60;;
46507;SDS011;32223;53.654;10.014;2022-08-20T10:43:25;7.50;;;1.77;;
46507;SDS011;32223;53.654;10.014;2022-08-20T10:45:52;6.93;;;2.17;;
46507;SDS011;32223;53.654;10.014;2022-08-20T10:48:17;8.93;;;1.83;;
46507;SDS011;32223;53.654;10.014;2022-08-20T10:50:43;5.75;;;2.13;;
46507;SDS011;32223;53.654;10.014;2022-08-20T10:53:09;6.10;;;2.65;;
46507;SDS011;32223;53.654;10.014;2022-08-20T10:55:34;5.38;;;1.88;;
46507;SDS011;32223;53.654;10.014;2022-08-20T10:58:00;6.57;;;1.95;;
46507;SDS011;32223;53.654;10.014;2022-08-20T11:00:29;6.35;;;1.75;;
46507;SDS011;32223;53.654;10.014;2022-08-20T11:02:55;3.83;;;1.70;;
46507;SDS011;32223;53.654;10.014;2022-08-20T11:05:20;7.50;;;2.08;;
46507;SDS011;32223;53.654;10.014;2022-08-20T11:07:46;4.18;;;1.60;;
46507;SDS011;32223;53.654;10.014;2022-08-20T11:10:12;8.63;;;1.90;;
46507;SDS011;32223;53.654;10.014;2022-08-20T11:12:38;6.30;;;1.67;;
46507;SDS011;32223;53.654;10.014;2022-08-20T11:15:04;7.35;;;1.90;;
46507;SDS011;32223;53.654;10.014;2022-08-20T11:17:31;6.00;;;1.88;;
46507;SDS011;32223;53.654;10.014;2022-08-20T11:19:59;5.07;;;1.42;;
46507;SDS011;32223;53.654;10.014;2022-08-20T11:22:26;7.60;;;1.80;;
46507;SDS011;32223;53.654;10.014;2022-08-20T11:24:52;6.05;;;1.70;;
46507;SDS011;32223;53.654;10.014;2022-08-20T11:27:21;7.63;;;1.80;;
46507;SDS011;32223;53.654;10.014;2022-08-20T11:29:49;8.73;;;1.58;;
46507;SDS011;32223;53.654;10.014;2022-08-20T11:32:15;9.38;;;1.73;;
46507;SDS011;32223;53.654;10.014;2022-08-20T11:34:41;4.20;;;1.08;;
46507;SDS011;32223;53.654;10.014;2022-08-20T11:37:06;4.63;;;1.58;;
46507;SDS011;32223;53.654;10.014;2022-08-20T11:39:32;4.80;;;1.63;;
46507;SDS011;32223;53.654;10.014;2022-08-20T11:41:58;6.78;;;2.45;;
46507;SDS011;32223;53.654;10.014;2022-08-20T11:44:23;6.30;;;1.63;;
46507;SDS011;32223;53.654;10.014;2022-08-20T11:46:49;4.75;;;1.27;;
46507;SDS011;32223;53.654;10.014;2022-08-20T11:49:15;5.90;;;1.60;;
46507;SDS011;32223;53.654;10.014;2022-08-20T11:51:40;3.58;;;1.27;;
46507;SDS011;32223;53.654;10.014;2022-08-20T11:54:06;6.35;;;1.40;;
46507;SDS011;32223;53.654;10.014;2022-08-20T11:56:32;6.57;;;1.73;;
46507;SDS011;32223;53.654;10.014;2022-08-20T11:58:57;7.13;;;1.73;;
46507;SDS011;32223;53.654;10.014;2022-08-20T12:01:23;6.68;;;1.52;;
46507;SDS011;32223;53.654;10.014;2022-08-20T12:03:49;6.53;;;1.88;;
46507;SDS011;32223;53.654;10.014;2022-08-20T12:06:14;8.80;;;1.83;;
46507;SDS011;32223;53.654;10.014;2022-08-20T12:08:40;5.10;;;1.75;;
46507;SDS011;32223;53.654;10.014;2022-08-20T12:11:06;5.15;;;1.38;;
46507;SDS011;32223;53.654;10.014;2022-08-20T12:13:33;5.28;;;1.67;;
46507;SDS011;32223;53.654;10.014;2022-08-20T12:15:59;5.53;;;1.02;;
46507;SDS011;32223;53.654;10.014;2022-08-20T12:18:25;5.60;;;1.60;;
46507;SDS011;32223;53.654;10.014;2022-08-20T12:20:51;4.32;;;1.38;;
46507;SDS011;32223;53.654;10.014;2022-08-20T12:23:17;4.05;;;1.85;;
46507;SDS011;32223;53.654;10.014;2022-08-20T12:25:43;4.00;;;1.20;;
46507;SDS011;32223;53.654;10.014;2022-08-20T12:28:10;4.40;;;1.02;;
46507;SDS011;32223;53.654;10.014;2022-08-20T12:30:37;6.68;;;1.20;;
46507;SDS011;32223;53.654;10.014;2022-08-20T12:33:03;4.70;;;1.23;;
46507;SDS011;32223;53.654;10.014;2022-08-20T12:35:28;4.78;;;1.35;;
46507;SDS011;32223;53.654;10.014;2022-08-20T12:37:55;4.53;;;1.10;;
46507;SDS011;32223;53.654;10.014;2022-08-20T12:40:22;4.60;;;1.25;;
46507;SDS011;32223;53.654;10.014;2022-08-20T12:42:50;4.88;;;1.17;;
46507;SDS011;32223;53.654;10.014;2022-08-20T12:45:16;3.85;;;0.93;;
46507;SDS011;32223;53.654;10.014;2022-08-20T12:47:43;4.38;;;1.10;;
46507;SDS011;32223;53.654;10.014;2022-08-20T12:50:15;3.83;;;0.80;;
46507;SDS011;32223;53.654;10.014;2022-08-20T12:52:43;3.40;;;0.85;;
46507;SDS011;32223;53.654;10.014;2022-08-20T12:55:10;4.97;;;0.93;;
46507;SDS011;32223;53.654;10.014;2022-08-20T12:57:39;3.95;;;1.35;;
46507;SDS011;32223;53.654;10.014;2022-08-20T13:00:17;2.60;;;0.90;;
46507;SDS011;32223;53.654;10.014;2022-08-20T13:02:46;4.55;;;1.55;;
46507;SDS011;32223;53.654;10.014;2022-08-20T13:05:17;5.22;;;1.60;;
46507;SDS011;32223;53.654;10.014;2022-08-20T13:07:44;4.93;;;2.17;;
46507;SDS011;32223;53.654;10.014;2022-08-20T13:10:13;5.47;;;2.13;;
46507;SDS011;32223;53.654;10.014;2022-08-20T13:12:44;6.40;;;1.23;;
46507;SDS011;32223;53.654;10.014;2022-08-20T13:15:10;4.00;;;1.50;;
46507;SDS011;32223;53.654;10.014;2022-08-20T13:17:36;4.85;;;1.17;;
46507;SDS011;32223;53.654;10.014;2022-08-20T13:20:02;5.32;;;1.25;;
46507;SDS011;32223;53.654;10.014;2022-08-20T13:22:29;4.10;;;1.92;;
46507;SDS011;32223;53.654;10.014;2022-08-20T13:24:55;3.28;;;0.70;;
46507;SDS011;32223;53.654;10.014;2022-08-20T13:27:21;4.72;;;0.90;;
46507;SDS011;32223;53.654;10.014;2022-08-20T13:29:49;4.80;;;1.58;;
46507;SDS011;32223;53.654;10.014;2022-08-20T13:32:17;5.32;;;1.05;;
46507;SDS011;32223;53.654;10.014;2022-08-20T13:34:44;4.95;;;1.38;;
46507;SDS011;32223;53.654;10.014;2022-08-20T13:37:28;3.50;;;1.35;;
46507;SDS011;32223;53.654;10.014;2022-08-20T13:39:55;5.28;;;1.40;;
46507;SDS011;32223;53.654;10.014;2022-08-20T13:42:22;6.78;;;1.27;;
46507;SDS011;32223;53.654;10.014;2022-08-20T13:44:48;3.25;;;1.10;;
46507;SDS011;32223;53.654;10.014;2022-08-20T13:47:18;3.67;;;0.82;;
46507;SDS011;32223;53.654;10.014;2022-08-20T13:49:46;4.05;;;1.13;;
46507;SDS011;32223;53.654;10.014;2022-08-20T13:52:13;10.13;;;0.85;;
46507;SDS011;32223;53.654;10.014;2022-08-20T13:54:39;3.13;;;1.08;;
46507;SDS011;32223;53.654;10.014;2022-08-20T13:57:06;4.40;;;1.23;;
46507;SDS011;32223;53.654;10.014;2022-08-20T13:59:37;4.60;;;0.93;;
46507;SDS011;32223;53.654;10.014;2022-08-20T14:02:05;3.95;;;1.05;;
46507;SDS011;32223;53.654;10.014;2022-08-20T14:04:31;4.93;;;1.42;;
46507;SDS011;32223;53.654;10.014;2022-08-20T14:06:57;1.52;;;0.80;;
46507;SDS011;32223;53.654;10.014;2022-08-20T14:09:32;5.35;;;1.80;;
46507;SDS011;32223;53.654;10.014;2022-08-20T14:11:57;4.03;;;1.35;;
46507;SDS011;32223;53.654;10.014;2022-08-20T14:14:23;9.45;;;1.42;;
46507;SDS011;32223;53.654;10.014;2022-08-20T14:16:49;3.95;;;1.08;;
46507;SDS011;32223;53.654;10.014;2022-08-20T14:19:14;1.42;;;0.50;;
46507;SDS011;32223;53.654;10.014;2022-08-20T14:21:40;3.35;;;1.08;;
46507;SDS011;32223;53.654;10.014;2022-08-20T14:24:05;3.15;;;1.20;;
46507;SDS011;32223;53.654;10.014;2022-08-20T14:26:31;3.65;;;0.82;;
46507;SDS011;32223;53.654;10.014;2022-08-20T14:28:57;4.80;;;0.90;;
46507;SDS011;32223;53.654;10.014;2022-08-20T14:31:22;7.30;;;1.65;;
46507;SDS011;32223;53.654;10.014;2022-08-20T14:33:48;2.75;;;1.20;;
46507;SDS011;32223;53.654;10.014;2022-08-20T14:36:15;3.55;;;0.77;;
46507;SDS011;32223;53.654;10.014;2022-08-20T14:38:41;3.33;;;1.20;;
46507;SDS011;32223;53.654;10.014;2022-08-20T14:41:09;2.03;;;0.68;;